Time;durP1;ratioP1;P1;durP2;ratioP2;P2;SDS_P1;SDS_P2;PMS_P1;PMS_P2;Temp;Humidity;BMP_temperature;BMP_pressure;BME280_temperature;BME280_humidity;BME280_pressure;Samples;Min_cycle;Max_cycle;Signal;HPM_P1;HPM_P2
2023/01/05 00:00:22;;;;;;;37.92;20.63;;;;;;;;;;5152530;27;20409;-67
2023/01/05 00:02:47;;;;;;;36.63;21.00;;;;;;;;;;5152045;27;20109;-66
2023/01/05 00:05:13;;;;;;;33.10;20.13;;;;;;;;;;5150954;27;20034;-67
2023/01/05 00:07:38;;;;;;;38.50;21.65;;;;;;;;;;5152547;27;20413;-67
2023/01/05 00:22:29;;;;;;;38.78;21.10;;;;;;;;;;5152790;27;20029;-67
2023/01/05 00:23:58;;;;;;;33.83;18.55;;;;;;;;;;5152447;27;20029;-67
2023/01/05 00:26:24;;;;;;;30.52;18.45;;;;;;;;;;5152159;27;20019;-66
2023/01/05 00:28:49;;;;;;;33.17;18.88;;;;;;;;;;5152309;27;20129;-68
2023/01/05 00:31:14;;;;;;;30.25;18.33;;;;;;;;;;5152313;27;20030;-67
2023/01/05 00:33:40;;;;;;;37.45;20.45;;;;;;;;;;5152056;27;20023;-67
2023/01/05 00:36:09;;;;;;;32.15;19.20;;;;;;;;;;5151925;27;20022;-67
2023/01/05 00:38:35;;;;;;;33.47;18.85;;;;;;;;;;5152073;27;20558;-67
2023/01/05 00:41:00;;;;;;;33.17;19.70;;;;;;;;;;5151865;27;20022;-68
2023/01/05 00:43:25;;;;;;;30.88;19.20;;;;;;;;;;5151966;27;20030;-67
2023/01/05 00:45:51;;;;;;;34.42;19.25;;;;;;;;;;5152015;27;20018;-67
2023/01/05 00:48:16;;;;;;;33.80;18.85;;;;;;;;;;5152006;27;20019;-66
2023/01/05 00:50:41;;;;;;;33.17;19.20;;;;;;;;;;5152143;27;20456;-67
2023/01/05 00:53:07;;;;;;;33.67;18.88;;;;;;;;;;5152005;27;20023;-67
2023/01/05 00:55:32;;;;;;;31.45;18.65;;;;;;;;;;5151800;27;20056;-71
2023/01/05 00:57:57;;;;;;;31.98;18.55;;;;;;;;;;5151792;27;20045;-67
2023/01/05 01:00:23;;;;;;;32.85;17.45;;;;;;;;;;5151592;27;20022;-67
2023/01/05 01:02:51;;;;;;;31.58;18.63;;;;;;;;;;5151938;27;20071;-66
2023/01/05 01:05:17;;;;;;;32.92;17.45;;;;;;;;;;5151729;27;20655;-67
2023/01/05 01:07:42;;;;;;;32.10;17.92;;;;;;;;;;5151872;27;20022;-67
2023/01/05 01:10:09;;;;;;;31.30;17.85;;;;;;;;;;5152092;27;20022;-67
2023/01/05 01:12:35;;;;;;;30.30;16.85;;;;;;;;;;5152067;27;20011;-67
2023/01/05 01:15:00;;;;;;;30.25;16.20;;;;;;;;;;5154513;27;20466;-67
2023/01/05 01:17:25;;;;;;;24.55;14.73;;;;;;;;;;5155686;27;20488;-67
2023/01/05 01:19:51;;;;;;;28.55;15.77;;;;;;;;;;5155606;27;20023;-67
2023/01/05 01:22:16;;;;;;;29.90;17.77;;;;;;;;;;5155787;27;20022;-67
2023/01/05 01:24:41;;;;;;;32.30;18.45;;;;;;;;;;5156007;27;20454;-66
2023/01/05 01:27:07;;;;;;;33.22;18.98;;;;;;;;;;5155525;27;20027;-67
2023/01/05 01:29:32;;;;;;;32.75;19.17;;;;;;;;;;5155811;27;20034;-67
2023/01/05 01:31:58;;;;;;;33.42;19.55;;;;;;;;;;5155833;27;20480;-67
2023/01/05 01:34:24;;;;;;;31.27;19.25;;;;;;;;;;5155502;27;20095;-67
2023/01/05 01:36:49;;;;;;;35.15;19.92;;;;;;;;;;5155275;27;20065;-66
2023/01/05 01:39:15;;;;;;;35.42;19.83;;;;;;;;;;5155521;27;20102;-67
2023/01/05 01:41:40;;;;;;;33.67;19.48;;;;;;;;;;5155429;27;20030;-67
2023/01/05 01:44:43;;;;;;;35.25;19.52;;;;;;;;;;5155504;27;20046;-66
2023/01/05 01:47:15;;;;;;;30.92;18.73;;;;;;;;;;5153827;27;20030;-66
2023/01/05 01:49:41;;;;;;;33.00;19.33;;;;;;;;;;5155309;27;20394;-66
2023/01/05 01:52:07;;;;;;;30.98;19.60;;;;;;;;;;5155487;27;20506;-66
2023/01/05 01:54:32;;;;;;;33.97;19.23;;;;;;;;;;5155424;27;20035;-67
2023/01/05 01:56:58;;;;;;;32.25;19.20;;;;;;;;;;5155161;27;20393;-67
2023/01/05 01:59:25;;;;;;;35.58;19.65;;;;;;;;;;5154961;27;20022;-67
2023/01/05 02:01:54;;;;;;;31.52;18.75;;;;;;;;;;5154772;27;20049;-70
2023/01/05 02:04:20;;;;;;;35.95;21.02;;;;;;;;;;5154937;27;20027;-67
2023/01/05 02:06:45;;;;;;;35.00;20.85;;;;;;;;;;5154760;27;20442;-67
2023/01/05 02:09:11;;;;;;;34.47;19.77;;;;;;;;;;5155198;27;20022;-68
2023/01/05 02:11:47;;;;;;;34.25;18.95;;;;;;;;;;5154853;27;20019;-68
2023/01/05 02:14:39;;;;;;;36.65;19.48;;;;;;;;;;5154771;27;20428;-68
2023/01/05 02:17:07;;;;;;;30.52;18.15;;;;;;;;;;5154360;27;20023;-67
2023/01/05 02:19:56;;;;;;;33.67;19.63;;;;;;;;;;5154513;27;20398;-67
2023/01/05 02:22:40;;;;;;;35.20;18.75;;;;;;;;;;5154694;27;20598;-68
2023/01/05 02:25:34;;;;;;;33.30;18.30;;;;;;;;;;5152613;27;20071;-68
2023/01/05 02:28:26;;;;;;;34.60;18.40;;;;;;;;;;5154425;27;20042;-67
2023/01/05 02:31:07;;;;;;;29.45;17.33;;;;;;;;;;5154484;27;20410;-66
2023/01/05 02:33:57;;;;;;;33.83;17.60;;;;;;;;;;5154301;27;20023;-67
2023/01/05 02:36:25;;;;;;;28.10;17.85;;;;;;;;;;5154380;27;20129;-67
2023/01/05 02:39:02;;;;;;;32.40;17.98;;;;;;;;;;5154205;27;20034;-67
2023/01/05 02:41:48;;;;;;;26.63;16.70;;;;;;;;;;5153924;27;20519;-68
2023/01/05 02:44:18;;;;;;;29.20;17.10;;;;;;;;;;5154120;27;20043;-67
2023/01/05 02:46:57;;;;;;;27.52;16.63;;;;;;;;;;5154055;27;20371;-67
2023/01/05 02:49:23;;;;;;;29.17;17.30;;;;;;;;;;5154118;27;20042;-66
2023/01/05 02:51:54;;;;;;;27.50;16.58;;;;;;;;;;5152600;27;20041;-73
2023/01/05 02:54:35;;;;;;;28.75;17.25;;;;;;;;;;5154123;27;20032;-68
2023/01/05 02:57:09;;;;;;;25.80;16.05;;;;;;;;;;5153727;27;20018;-66
2023/01/05 02:59:41;;;;;;;27.13;15.77;;;;;;;;;;5153927;27;20027;-66
2023/01/05 03:02:21;;;;;;;28.75;15.82;;;;;;;;;;5153619;27;20029;-68
2023/01/05 03:04:54;;;;;;;26.00;15.48;;;;;;;;;;5153709;27;20054;-68
2023/01/05 03:07:27;;;;;;;23.65;13.63;;;;;;;;;;5153621;27;20026;-65
2023/01/05 03:09:53;;;;;;;18.10;11.13;;;;;;;;;;5153905;27;20033;-67
2023/01/05 03:15:29;;;;;;;14.50;8.60;;;;;;;;;;5153500;27;20512;-67
2023/01/05 03:17:57;;;;;;;11.25;6.65;;;;;;;;;;5153223;27;20114;-67
2023/01/05 03:20:26;;;;;;;11.40;6.50;;;;;;;;;;5153331;27;20208;-68
2023/01/05 03:37:23;;;;;;;8.48;4.90;;;;;;;;;;5152207;27;20057;-66
2023/01/05 03:39:48;;;;;;;10.57;4.90;;;;;;;;;;5152973;27;20560;-66
2023/01/05 03:42:14;;;;;;;8.95;4.70;;;;;;;;;;5153092;27;20050;-67
2023/01/05 03:44:43;;;;;;;8.25;5.10;;;;;;;;;;5153027;27;20050;-67
2023/01/05 03:47:09;;;;;;;7.60;4.53;;;;;;;;;;5153006;27;20030;-67
2023/01/05 03:49:35;;;;;;;10.75;4.93;;;;;;;;;;5152888;27;20226;-68
2023/01/05 03:52:00;;;;;;;7.57;4.28;;;;;;;;;;5152755;27;20037;-67
2023/01/05 03:54:26;;;;;;;7.78;4.97;;;;;;;;;;5152674;27;20026;-66
2023/01/05 03:56:51;;;;;;;9.05;4.72;;;;;;;;;;5152638;27;20658;-66
2023/01/05 03:59:17;;;;;;;9.82;4.72;;;;;;;;;;5152733;27;20023;-67
2023/01/05 04:01:42;;;;;;;11.02;4.57;;;;;;;;;;5152773;27;20030;-66
2023/01/05 04:04:08;;;;;;;10.00;4.93;;;;;;;;;;5152659;27;20019;-68
2023/01/05 04:06:33;;;;;;;8.25;4.45;;;;;;;;;;5152654;27;20027;-66
2023/01/05 04:08:58;;;;;;;10.23;4.95;;;;;;;;;;5152662;27;20047;-67
2023/01/05 04:11:24;;;;;;;8.10;4.40;;;;;;;;;;5152489;27;20023;-67
2023/01/05 04:13:50;;;;;;;8.05;4.53;;;;;;;;;;5152410;27;20117;-66
2023/01/05 04:16:16;;;;;;;9.07;4.78;;;;;;;;;;5152366;27;20023;-68
2023/01/05 04:18:42;;;;;;;9.98;4.70;;;;;;;;;;5152105;27;20034;-67
2023/01/05 04:21:08;;;;;;;9.13;4.65;;;;;;;;;;5152519;27;20035;-66
2023/01/05 04:23:33;;;;;;;8.65;4.90;;;;;;;;;;5152439;27;20504;-68
2023/01/05 04:25:59;;;;;;;8.98;5.03;;;;;;;;;;5152515;27;20031;-67
2023/01/05 04:28:24;;;;;;;8.75;4.65;;;;;;;;;;5152227;27;20029;-67
2023/01/05 04:30:51;;;;;;;9.95;4.70;;;;;;;;;;5152367;27;20479;-67
2023/01/05 04:33:18;;;;;;;13.18;4.85;;;;;;;;;;5152177;27;20083;-67
2023/01/05 04:35:43;;;;;;;8.63;4.88;;;;;;;;;;5163475;27;20035;-67
2023/01/05 04:38:09;;;;;;;9.38;4.65;;;;;;;;;;5173978;27;20025;-68
2023/01/05 04:40:35;;;;;;;10.38;5.07;;;;;;;;;;5166774;27;20554;-67
2023/01/05 04:43:00;;;;;;;10.18;4.70;;;;;;;;;;5152400;27;20011;-68
2023/01/05 04:45:25;;;;;;;8.93;4.30;;;;;;;;;;5152193;27;20498;-68
2023/01/05 04:47:51;;;;;;;8.20;4.43;;;;;;;;;;5153225;27;20034;-67
2023/01/05 04:50:17;;;;;;;8.23;4.53;;;;;;;;;;5158893;27;20030;-67
2023/01/05 04:52:43;;;;;;;9.43;4.47;;;;;;;;;;5159211;27;20027;-67
2023/01/05 04:55:09;;;;;;;9.02;4.43;;;;;;;;;;5159041;27;20038;-66
2023/01/05 04:57:34;;;;;;;10.27;4.15;;;;;;;;;;5158777;27;20027;-67
2023/01/05 04:59:59;;;;;;;6.90;3.65;;;;;;;;;;5159066;27;20053;-67
2023/01/05 05:02:25;;;;;;;7.88;4.10;;;;;;;;;;5158642;27;20489;-66
2023/01/05 05:04:51;;;;;;;6.97;3.55;;;;;;;;;;5158663;27;20023;-68
2023/01/05 05:07:16;;;;;;;6.18;3.78;;;;;;;;;;5158709;27;20015;-70
2023/01/05 05:09:41;;;;;;;7.93;3.55;;;;;;;;;;5158865;27;20023;-74
2023/01/05 05:12:07;;;;;;;7.30;3.40;;;;;;;;;;5158915;27;20087;-67
2023/01/05 05:14:33;;;;;;;6.43;3.50;;;;;;;;;;5158814;27;20603;-67
2023/01/05 05:16:59;;;;;;;7.35;3.47;;;;;;;;;;5158757;27;20019;-67
2023/01/05 05:19:24;;;;;;;9.40;3.50;;;;;;;;;;5158650;27;20026;-69
2023/01/05 05:21:50;;;;;;;7.57;3.75;;;;;;;;;;5158597;27;20027;-73
2023/01/05 05:24:15;;;;;;;7.43;3.60;;;;;;;;;;5158579;27;20026;-67
2023/01/05 05:26:40;;;;;;;8.23;3.67;;;;;;;;;;5158592;27;20023;-68
2023/01/05 05:29:06;;;;;;;8.10;3.95;;;;;;;;;;5158391;27;20030;-71
2023/01/05 05:31:31;;;;;;;8.52;3.42;;;;;;;;;;5158765;27;20035;-66
2023/01/05 05:33:57;;;;;;;6.72;3.90;;;;;;;;;;5158386;27;20027;-68
2023/01/05 05:36:22;;;;;;;8.55;4.05;;;;;;;;;;5158610;27;20382;-66
2023/01/05 05:38:47;;;;;;;7.50;4.00;;;;;;;;;;5158267;27;20370;-67
2023/01/05 05:41:13;;;;;;;6.63;3.58;;;;;;;;;;5158440;27;20019;-68
2023/01/05 05:43:38;;;;;;;6.72;3.63;;;;;;;;;;5156945;27;20092;-68
2023/01/05 05:46:04;;;;;;;10.05;4.10;;;;;;;;;;5158436;27;20381;-70
2023/01/05 05:48:29;;;;;;;7.10;3.88;;;;;;;;;;5158021;27;20063;-67
2023/01/05 05:50:55;;;;;;;5.85;3.30;;;;;;;;;;5158433;27;20094;-68
2023/01/05 05:53:20;;;;;;;9.15;3.75;;;;;;;;;;5158229;27;20462;-68
2023/01/05 05:55:49;;;;;;;8.48;3.72;;;;;;;;;;5158507;27;20030;-67
2023/01/05 05:58:16;;;;;;;7.35;3.60;;;;;;;;;;5158177;27;20064;-67
2023/01/05 06:00:42;;;;;;;8.10;3.80;;;;;;;;;;5154854;27;20035;-67
2023/01/05 06:03:07;;;;;;;8.05;3.35;;;;;;;;;;5154683;27;20087;-74
2023/01/05 06:05:32;;;;;;;6.72;3.40;;;;;;;;;;5154869;27;20030;-67
2023/01/05 06:07:58;;;;;;;7.30;3.63;;;;;;;;;;5154634;27;20030;-70
2023/01/05 06:10:23;;;;;;;7.25;3.47;;;;;;;;;;5154960;27;20031;-67
2023/01/05 06:12:49;;;;;;;7.43;3.35;;;;;;;;;;5155021;27;20022;-66
2023/01/05 06:15:14;;;;;;;6.50;3.28;;;;;;;;;;5154785;27;20419;-67
2023/01/05 06:17:40;;;;;;;6.25;3.28;;;;;;;;;;5154615;27;20512;-66
2023/01/05 06:20:07;;;;;;;7.40;2.83;;;;;;;;;;5154593;27;20251;-67
2023/01/05 06:22:32;;;;;;;6.07;3.05;;;;;;;;;;5154800;27;20095;-67
2023/01/05 06:24:58;;;;;;;7.20;3.22;;;;;;;;;;5154557;27;20058;-67
2023/01/05 06:27:23;;;;;;;7.10;3.20;;;;;;;;;;5154443;27;20115;-67
2023/01/05 06:29:48;;;;;;;5.95;2.63;;;;;;;;;;5154419;27;20049;-66
2023/01/05 06:32:14;;;;;;;6.72;3.13;;;;;;;;;;5154540;27;20034;-67
2023/01/05 06:34:39;;;;;;;6.47;2.88;;;;;;;;;;5154330;27;20605;-67
2023/01/05 06:37:05;;;;;;;6.95;3.25;;;;;;;;;;5154563;27;20027;-69
2023/01/05 06:39:31;;;;;;;6.45;3.15;;;;;;;;;;5154293;27;20027;-66
2023/01/05 06:41:56;;;;;;;6.55;2.65;;;;;;;;;;5154183;27;20023;-67
2023/01/05 06:44:21;;;;;;;5.85;2.90;;;;;;;;;;5153915;27;20444;-67
2023/01/05 06:46:47;;;;;;;6.45;2.90;;;;;;;;;;5154100;27;20054;-66
2023/01/05 06:49:13;;;;;;;5.00;2.50;;;;;;;;;;5153826;27;20170;-66
2023/01/05 06:51:39;;;;;;;5.40;2.85;;;;;;;;;;5154120;27;20065;-67
2023/01/05 06:54:05;;;;;;;6.50;2.88;;;;;;;;;;5154074;27;20058;-66
2023/01/05 06:56:31;;;;;;;5.63;2.80;;;;;;;;;;5154088;27;20030;-66
2023/01/05 06:58:56;;;;;;;6.93;3.00;;;;;;;;;;5153781;27;20023;-66
2023/01/05 07:01:22;;;;;;;7.95;2.85;;;;;;;;;;5153803;27;20026;-66
2023/01/05 07:03:47;;;;;;;7.10;3.00;;;;;;;;;;5153714;27;20039;-67
2023/01/05 07:06:14;;;;;;;7.03;3.03;;;;;;;;;;5153712;27;20054;-67
2023/01/05 07:08:39;;;;;;;5.45;2.95;;;;;;;;;;5153722;27;20435;-67
2023/01/05 07:11:05;;;;;;;5.78;2.90;;;;;;;;;;5153431;27;20458;-67
2023/01/05 07:13:31;;;;;;;6.22;3.22;;;;;;;;;;5152216;27;20038;-67
2023/01/05 07:15:57;;;;;;;6.13;2.88;;;;;;;;;;5154175;27;20128;-67
2023/01/05 07:18:22;;;;;;;6.13;2.90;;;;;;;;;;5154535;27;20074;-67
2023/01/05 07:20:47;;;;;;;6.47;2.88;;;;;;;;;;5156345;27;20022;-67
2023/01/05 07:23:13;;;;;;;8.25;3.20;;;;;;;;;;5155941;27;20027;-67
2023/01/05 07:25:38;;;;;;;6.22;2.70;;;;;;;;;;5156109;27;20083;-68
2023/01/05 07:28:04;;;;;;;5.88;2.80;;;;;;;;;;5154066;27;20030;-67
2023/01/05 07:30:29;;;;;;;6.07;2.83;;;;;;;;;;5153472;27;20077;-66
2023/01/05 07:32:58;;;;;;;7.70;3.05;;;;;;;;;;5153529;27;20079;-67
2023/01/05 07:35:24;;;;;;;6.75;3.20;;;;;;;;;;5153220;27;20110;-68
2023/01/05 07:37:49;;;;;;;6.85;2.63;;;;;;;;;;5153332;27;20582;-67
2023/01/05 07:40:15;;;;;;;5.55;3.00;;;;;;;;;;5152704;27;20018;-67
2023/01/05 07:42:41;;;;;;;6.88;2.92;;;;;;;;;;5152909;27;20039;-67
2023/01/05 07:45:07;;;;;;;5.50;2.88;;;;;;;;;;5152722;27;20039;-68
2023/01/05 07:47:32;;;;;;;8.23;4.03;;;;;;;;;;5152925;27;20099;-68
2023/01/05 07:49:58;;;;;;;10.00;4.00;;;;;;;;;;5152731;27;20022;-73
2023/01/05 07:52:23;;;;;;;5.90;3.20;;;;;;;;;;5152794;27;20546;-70
2023/01/05 07:54:48;;;;;;;5.22;2.90;;;;;;;;;;5152757;27;20033;-69
2023/01/05 07:57:14;;;;;;;11.20;3.10;;;;;;;;;;5152836;27;20014;-68
2023/01/05 07:59:39;;;;;;;10.07;3.05;;;;;;;;;;5152266;27;20022;-73
2023/01/05 08:02:05;;;;;;;4.70;2.80;;;;;;;;;;5152521;27;20015;-68
2023/01/05 08:04:30;;;;;;;8.93;2.85;;;;;;;;;;5152398;27;20019;-66
2023/01/05 08:06:56;;;;;;;8.60;2.78;;;;;;;;;;5152562;27;20485;-66
2023/01/05 08:12:06;;;;;;;7.13;2.97;;;;;;;;;;5152564;27;20071;-66
2023/01/05 08:14:31;;;;;;;6.68;2.60;;;;;;;;;;5152511;27;20026;-67
2023/01/05 08:16:56;;;;;;;6.43;2.70;;;;;;;;;;5152592;27;20083;-66
2023/01/05 08:19:22;;;;;;;4.00;2.33;;;;;;;;;;5151947;27;20441;-71
2023/01/05 08:21:47;;;;;;;4.97;2.15;;;;;;;;;;5152349;27;20033;-66
2023/01/05 08:24:13;;;;;;;5.82;2.63;;;;;;;;;;5151636;27;20447;-66
2023/01/05 08:26:38;;;;;;;4.07;2.28;;;;;;;;;;5152260;27;20030;-66
2023/01/05 08:29:04;;;;;;;4.03;2.30;;;;;;;;;;5152187;27;20062;-67
2023/01/05 08:31:30;;;;;;;7.03;2.45;;;;;;;;;;5152187;27;20030;-66
2023/01/05 08:33:58;;;;;;;5.25;2.30;;;;;;;;;;5152119;27;20027;-66
2023/01/05 08:36:24;;;;;;;5.55;2.10;;;;;;;;;;5152398;27;20034;-66
2023/01/05 08:38:51;;;;;;;4.43;2.15;;;;;;;;;;5151974;27;20034;-67
2023/01/05 08:41:22;;;;;;;4.85;2.20;;;;;;;;;;5152073;27;20478;-66
2023/01/05 08:43:53;;;;;;;5.43;2.40;;;;;;;;;;5151693;27;20054;-69
2023/01/05 08:46:25;;;;;;;7.22;2.28;;;;;;;;;;5151992;27;20034;-70
2023/01/05 08:48:52;;;;;;;5.30;2.20;;;;;;;;;;5151747;27;20105;-66
2023/01/05 08:51:18;;;;;;;4.70;2.10;;;;;;;;;;5152026;27;20033;-66
2023/01/05 08:53:44;;;;;;;5.90;2.42;;;;;;;;;;5152014;27;20025;-67
2023/01/05 08:56:09;;;;;;;6.85;2.30;;;;;;;;;;5152256;27;20031;-66
2023/01/05 08:58:38;;;;;;;6.70;2.33;;;;;;;;;;5151767;27;20629;-66
2023/01/05 09:01:13;;;;;;;4.72;1.98;;;;;;;;;;5151888;27;20026;-66
2023/01/05 09:03:39;;;;;;;5.82;2.28;;;;;;;;;;5151536;27;20030;-67
2023/01/05 09:06:08;;;;;;;7.72;2.42;;;;;;;;;;5151853;27;20400;-66
2023/01/05 09:08:34;;;;;;;5.15;2.65;;;;;;;;;;5151762;27;20019;-73
2023/01/05 09:11:07;;;;;;;8.63;2.90;;;;;;;;;;5151945;27;20083;-68
2023/01/05 09:13:33;;;;;;;6.38;2.95;;;;;;;;;;5151963;27;20104;-68
2023/01/05 09:16:09;;;;;;;6.63;3.00;;;;;;;;;;5151966;27;20027;-68
2023/01/05 09:18:35;;;;;;;9.57;3.17;;;;;;;;;;5151475;27;20439;-68
2023/01/05 09:21:00;;;;;;;12.23;4.30;;;;;;;;;;5151639;27;20022;-67
2023/01/05 09:23:26;;;;;;;10.60;5.22;;;;;;;;;;5151732;27;20025;-68
2023/01/05 09:25:51;;;;;;;12.32;5.15;;;;;;;;;;5151554;27;20061;-71
2023/01/05 09:28:17;;;;;;;14.55;5.05;;;;;;;;;;5151675;27;20019;-69
2023/01/05 09:30:42;;;;;;;12.25;6.00;;;;;;;;;;5151469;27;20015;-72
2023/01/05 09:33:07;;;;;;;10.50;5.15;;;;;;;;;;5150530;27;20050;-69
2023/01/05 09:35:33;;;;;;;9.82;5.40;;;;;;;;;;5152990;27;20121;-72
2023/01/05 09:37:58;;;;;;;8.00;4.65;;;;;;;;;;5155496;27;20071;-72
2023/01/05 09:40:24;;;;;;;8.20;4.57;;;;;;;;;;5155125;27;20049;-67
2023/01/05 09:42:50;;;;;;;10.98;4.70;;;;;;;;;;5155399;27;20027;-69
2023/01/05 09:45:24;;;;;;;7.95;4.68;;;;;;;;;;5155127;27;20043;-67
2023/01/05 09:47:51;;;;;;;10.50;4.45;;;;;;;;;;5155348;27;20103;-66
2023/01/05 09:50:22;;;;;;;11.00;4.40;;;;;;;;;;5154927;27;20029;-67
2023/01/05 09:52:51;;;;;;;7.82;4.10;;;;;;;;;;5155298;27;20033;-67
2023/01/05 09:55:20;;;;;;;11.38;4.53;;;;;;;;;;5155172;27;20031;-67
2023/01/05 09:57:56;;;;;;;9.55;4.13;;;;;;;;;;5155285;27;20175;-67
2023/01/05 10:00:23;;;;;;;8.30;4.57;;;;;;;;;;5154779;27;20030;-68
2023/01/05 10:02:58;;;;;;;10.02;5.30;;;;;;;;;;5154789;27;20023;-75
2023/01/05 10:05:25;;;;;;;11.45;6.72;;;;;;;;;;5155318;27;20029;-68
2023/01/05 10:07:53;;;;;;;13.93;6.50;;;;;;;;;;5155251;27;20054;-68
2023/01/05 10:10:37;;;;;;;12.13;6.30;;;;;;;;;;5155039;27;20023;-68
2023/01/05 10:13:05;;;;;;;9.23;5.38;;;;;;;;;;5154916;27;20097;-68
2023/01/05 10:15:47;;;;;;;10.13;5.43;;;;;;;;;;5154777;27;20027;-72
2023/01/05 10:18:21;;;;;;;6.78;3.75;;;;;;;;;;5154832;27;20018;-69
2023/01/05 10:21:18;;;;;;;7.32;4.25;;;;;;;;;;5154563;27;20042;-68
2023/01/05 10:24:20;;;;;;;11.98;5.00;;;;;;;;;;5132677;27;20077;-68
2023/01/05 10:27:00;;;;;;;9.20;5.07;;;;;;;;;;5154708;27;20051;-71
2023/01/05 10:29:46;;;;;;;11.43;4.93;;;;;;;;;;5154418;27;20102;-72
2023/01/05 10:32:35;;;;;;;12.55;5.03;;;;;;;;;;5154599;27;20019;-68
2023/01/05 10:35:22;;;;;;;10.13;4.65;;;;;;;;;;5154475;27;20055;-67
2023/01/05 10:38:06;;;;;;;10.45;4.97;;;;;;;;;;5154376;27;20023;-74
2023/01/05 10:40:46;;;;;;;11.85;4.38;;;;;;;;;;5153922;27;20456;-72
2023/01/05 10:43:36;;;;;;;8.43;4.70;;;;;;;;;;5154329;27;20462;-71
2023/01/05 10:46:03;;;;;;;11.27;4.77;;;;;;;;;;5152388;27;20075;-68
2023/01/05 10:48:33;;;;;;;8.43;4.40;;;;;;;;;;5154140;27;20095;-68
2023/01/05 10:50:59;;;;;;;6.78;3.90;;;;;;;;;;5154152;27;20030;-70
2023/01/05 10:53:27;;;;;;;6.88;3.97;;;;;;;;;;5154041;27;20031;-67
2023/01/05 10:55:55;;;;;;;8.90;4.32;;;;;;;;;;5154082;27;20046;-70
2023/01/05 10:58:29;;;;;;;6.07;3.90;;;;;;;;;;5153811;27;20059;-68
2023/01/05 11:00:58;;;;;;;9.85;4.30;;;;;;;;;;5153577;27;20027;-70
2023/01/05 11:03:42;;;;;;;15.52;7.18;;;;;;;;;;5152213;27;20027;-67
2023/01/05 11:06:17;;;;;;;10.98;5.35;;;;;;;;;;5153833;27;20027;-67
2023/01/05 11:08:42;;;;;;;10.35;4.95;;;;;;;;;;5153739;27;20027;-66
2023/01/05 11:11:09;;;;;;;9.45;4.47;;;;;;;;;;5153401;27;20027;-67
2023/01/05 11:13:45;;;;;;;9.27;4.70;;;;;;;;;;5153586;27;20029;-67
2023/01/05 11:16:31;;;;;;;9.48;4.78;;;;;;;;;;5153501;27;20018;-66
2023/01/05 11:19:03;;;;;;;10.02;3.67;;;;;;;;;;5153378;27;20393;-67
2023/01/05 11:21:34;;;;;;;6.78;3.80;;;;;;;;;;5153320;27;20029;-68
2023/01/05 11:24:01;;;;;;;6.63;3.75;;;;;;;;;;5153483;27;20386;-67
2023/01/05 11:26:28;;;;;;;10.90;4.55;;;;;;;;;;5152055;27;20371;-67
2023/01/05 11:29:02;;;;;;;7.28;3.70;;;;;;;;;;5153527;27;20054;-68
2023/01/05 11:31:47;;;;;;;6.53;3.15;;;;;;;;;;5153211;27;20385;-71
2023/01/05 11:34:23;;;;;;;8.18;4.38;;;;;;;;;;5153072;27;20026;-68
2023/01/05 11:37:00;;;;;;;9.05;4.22;;;;;;;;;;5153260;27;20030;-68
2023/01/05 11:39:29;;;;;;;7.78;4.15;;;;;;;;;;5153106;27;20032;-67
2023/01/05 11:42:24;;;;;;;8.35;4.00;;;;;;;;;;5152909;27;20029;-68
2023/01/05 11:44:52;;;;;;;9.48;4.65;;;;;;;;;;5138421;27;20038;-68
2023/01/05 11:47:21;;;;;;;7.80;4.20;;;;;;;;;;5153072;27;20115;-67
2023/01/05 11:49:47;;;;;;;8.88;3.70;;;;;;;;;;5152803;27;20027;-67
2023/01/05 11:52:34;;;;;;;10.07;4.00;;;;;;;;;;5152863;27;20030;-67
2023/01/05 11:55:24;;;;;;;11.13;4.32;;;;;;;;;;5151433;27;20022;-71
2023/01/05 11:57:53;;;;;;;6.90;3.78;;;;;;;;;;5151964;27;20382;-66
2023/01/05 12:00:34;;;;;;;7.13;3.70;;;;;;;;;;5152395;27;20097;-66
2023/01/05 12:03:21;;;;;;;9.55;3.40;;;;;;;;;;5152532;27;20106;-67
2023/01/05 12:05:53;;;;;;;6.32;3.22;;;;;;;;;;5152671;27;20037;-66
2023/01/05 12:08:52;;;;;;;8.43;3.22;;;;;;;;;;5152802;27;20046;-68
2023/01/05 12:11:20;;;;;;;6.50;2.92;;;;;;;;;;5152246;27;20030;-67
2023/01/05 12:14:07;;;;;;;7.85;3.15;;;;;;;;;;5152492;27;20030;-67
2023/01/05 12:16:53;;;;;;;5.40;3.08;;;;;;;;;;5152434;27;20023;-67
2023/01/05 12:19:31;;;;;;;7.38;3.35;;;;;;;;;;5152296;27;20018;-66
2023/01/05 12:22:19;;;;;;;11.02;3.75;;;;;;;;;;5151935;27;20470;-67
2023/01/05 12:24:48;;;;;;;9.32;4.07;;;;;;;;;;5152361;27;20037;-67
2023/01/05 12:27:25;;;;;;;7.38;3.78;;;;;;;;;;5152340;27;20037;-68
2023/01/05 12:30:22;;;;;;;6.63;3.50;;;;;;;;;;5152370;27;20049;-68
2023/01/05 12:33:01;;;;;;;6.70;3.50;;;;;;;;;;5152410;27;20027;-68
2023/01/05 12:35:30;;;;;;;9.35;3.60;;;;;;;;;;5152094;27;20492;-68
2023/01/05 12:38:18;;;;;;;10.63;4.70;;;;;;;;;;5152207;27;20105;-66
2023/01/05 12:40:46;;;;;;;8.40;3.30;;;;;;;;;;5151789;27;20037;-67
2023/01/05 12:43:44;;;;;;;8.82;3.85;;;;;;;;;;5152187;27;20501;-66
2023/01/05 12:46:26;;;;;;;8.15;3.47;;;;;;;;;;5152192;27;20039;-68
2023/01/05 12:49:00;;;;;;;12.98;3.28;;;;;;;;;;5152094;27;20095;-67
2023/01/05 12:51:44;;;;;;;9.13;3.47;;;;;;;;;;5151763;27;20083;-68
2023/01/05 12:54:41;;;;;;;6.30;3.45;;;;;;;;;;5151896;27;20045;-70
2023/01/05 12:57:15;;;;;;;8.77;3.92;;;;;;;;;;5116387;27;20425;-74
2023/01/05 13:00:05;;;;;;;7.53;3.70;;;;;;;;;;5151809;27;20019;-67
2023/01/05 13:02:34;;;;;;;9.18;3.97;;;;;;;;;;5151863;27;20123;-73
2023/01/05 13:05:02;;;;;;;10.50;4.10;;;;;;;;;;5151532;27;20030;-67
2023/01/05 13:07:31;;;;;;;8.57;3.70;;;;;;;;;;5151727;27;20049;-67
2023/01/05 13:10:01;;;;;;;10.10;3.60;;;;;;;;;;5154308;27;20027;-68
2023/01/05 13:12:26;;;;;;;9.40;3.57;;;;;;;;;;5155837;27;20122;-68
2023/01/05 13:15:10;;;;;;;7.82;3.78;;;;;;;;;;5155936;27;20986;-68
2023/01/05 13:17:40;;;;;;;10.15;3.97;;;;;;;;;;5155821;27;20035;-68
2023/01/05 13:20:30;;;;;;;8.60;3.97;;;;;;;;;;5155767;27;20034;-68
2023/01/05 13:23:02;;;;;;;9.38;3.58;;;;;;;;;;5155890;27;20027;-67
2023/01/05 13:25:32;;;;;;;11.43;3.40;;;;;;;;;;5155717;27;20378;-67
2023/01/05 13:27:57;;;;;;;8.73;3.40;;;;;;;;;;5155906;27;20110;-67
2023/01/05 13:30:32;;;;;;;10.68;3.60;;;;;;;;;;5155468;27;20147;-67
2023/01/05 13:33:26;;;;;;;7.70;3.53;;;;;;;;;;5155586;27;20486;-66
2023/01/05 13:36:03;;;;;;;11.05;3.53;;;;;;;;;;5155361;27;20054;-67
2023/01/05 13:38:47;;;;;;;11.75;3.40;;;;;;;;;;5155571;27;20486;-67
2023/01/05 13:41:23;;;;;;;10.80;3.42;;;;;;;;;;5155214;27;20084;-69
2023/01/05 13:44:07;;;;;;;10.00;3.53;;;;;;;;;;5155420;27;20138;-67
2023/01/05 13:46:43;;;;;;;8.85;3.28;;;;;;;;;;5155538;27;20051;-68
2023/01/05 13:49:16;;;;;;;9.02;3.15;;;;;;;;;;5155465;27;20026;-67
2023/01/05 13:51:55;;;;;;;14.57;3.72;;;;;;;;;;5155098;27;20022;-67
2023/01/05 13:54:39;;;;;;;7.07;3.22;;;;;;;;;;5155321;27;20034;-68
2023/01/05 13:57:13;;;;;;;11.07;3.20;;;;;;;;;;5153655;27;20059;-68
2023/01/05 13:59:41;;;;;;;7.18;3.15;;;;;;;;;;5155140;27;20029;-67
2023/01/05 14:02:44;;;;;;;9.27;3.30;;;;;;;;;;5154940;27;20486;-67
2023/01/05 14:05:29;;;;;;;11.10;3.50;;;;;;;;;;5090508;28;20434;-67
2023/01/05 14:07:57;;;;;;;6.38;3.10;;;;;;;;;;5151193;27;20043;-69
2023/01/05 14:10:28;;;;;;;4.47;2.83;;;;;;;;;;5154935;27;20026;-67
2023/01/05 14:12:56;;;;;;;7.05;3.30;;;;;;;;;;5154836;27;20027;-67
2023/01/05 14:15:27;;;;;;;5.93;2.97;;;;;;;;;;5154755;27;20064;-67
2023/01/05 14:18:00;;;;;;;6.13;3.15;;;;;;;;;;5154912;27;20026;-66
2023/01/05 14:20:34;;;;;;;7.57;3.28;;;;;;;;;;5154146;27;20018;-67
2023/01/05 14:23:01;;;;;;;6.80;3.20;;;;;;;;;;5154597;27;20039;-68
2023/01/05 14:25:51;;;;;;;6.63;2.92;;;;;;;;;;5154739;27;20019;-67
2023/01/05 14:28:29;;;;;;;7.15;2.92;;;;;;;;;;5145533;27;20042;-68
2023/01/05 14:31:26;;;;;;;4.53;2.72;;;;;;;;;;5154405;27;20080;-68
2023/01/05 14:33:56;;;;;;;8.07;3.13;;;;;;;;;;5141574;27;20034;-68
2023/01/05 14:36:45;;;;;;;5.78;2.38;;;;;;;;;;5154405;27;20130;-71
2023/01/05 14:39:16;;;;;;;5.32;2.30;;;;;;;;;;5154273;27;20050;-70
2023/01/05 14:41:42;;;;;;;4.97;2.15;;;;;;;;;;5154242;27;20482;-71
2023/01/05 14:44:21;;;;;;;5.35;2.33;;;;;;;;;;5154235;27;20131;-68
2023/01/05 14:46:55;;;;;;;4.65;2.22;;;;;;;;;;5154528;27;20023;-68
2023/01/05 14:49:35;;;;;;;7.05;2.60;;;;;;;;;;5154225;27;20144;-67
2023/01/05 14:52:03;;;;;;;4.38;2.20;;;;;;;;;;5153773;27;20035;-69
2023/01/05 14:54:41;;;;;;;6.97;2.40;;;;;;;;;;5153698;27;20411;-68
2023/01/05 14:57:47;;;;;;;4.72;2.47;;;;;;;;;;5153958;27;20019;-68
2023/01/05 15:00:18;;;;;;;6.90;2.70;;;;;;;;;;5122087;27;20034;-66
2023/01/05 15:03:00;;;;;;;5.00;2.47;;;;;;;;;;5153876;27;20019;-66
2023/01/05 15:05:25;;;;;;;4.90;2.30;;;;;;;;;;5153753;27;20034;-67
2023/01/05 15:08:05;;;;;;;5.13;2.47;;;;;;;;;;5153968;27;20019;-67
2023/01/05 15:10:51;;;;;;;6.65;2.70;;;;;;;;;;5153786;27;20063;-67
2023/01/05 15:13:19;;;;;;;7.50;2.38;;;;;;;;;;5153475;27;20026;-67
2023/01/05 15:15:55;;;;;;;5.82;2.55;;;;;;;;;;5152300;27;20052;-67
2023/01/05 15:18:51;;;;;;;6.05;2.40;;;;;;;;;;5153363;27;20034;-67
2023/01/05 15:21:32;;;;;;;6.00;2.28;;;;;;;;;;5153441;27;20026;-67
2023/01/05 15:24:18;;;;;;;5.95;2.60;;;;;;;;;;5153663;27;20101;-67
2023/01/05 15:27:11;;;;;;;5.90;2.63;;;;;;;;;;5153484;27;20030;-67
2023/01/05 15:29:54;;;;;;;5.20;2.42;;;;;;;;;;5153344;27;20022;-67